Terminal Aerodrome Forecast
Issued by NWS Tuscon, AZ

Home | Current Version | Previous Version | Text Only | Print | Product List | Glossary On
Versions: 1 2 3 4 5 6 7 8 9 10 11 12 13 14 15 16 17 18 19 20
322
FTUS45 KTWC 230129 AAA
TAFTUS
TAF AMD
KTUS 230129Z 2301/2324 04012G20KT P6SM VCTS SCT060CB BKN120
      TEMPO 2301/2303 VRB20G35KT 1SM TSRA BKN015CB OVC030
     FM230400 15008KT P6SM SCT080 BKN150
     FM231800 30006KT P6SM FEW060 SCT120=

USA.gov is the U.S. government's official web portal to all federal, state and local government web resources and services.